Time;durP1;ratioP1;P1;durP2;ratioP2;P2;SDS_P1;SDS_P2;PMS_P1;PMS_P2;Temp;Humidity;BMP_temperature;BMP_pressure;BME280_temperature;BME280_humidity;BME280_pressure;Samples;Min_cycle;Max_cycle;Signal;HPM_P1;HPM_P2
2023/01/20 00:02:01;;;;;;;23.33;12.48;;;;;;;4.70;70.25;101107.66;5004396;28;20030;-43
2023/01/20 00:04:27;;;;;;;23.50;12.60;;;;;;;4.71;70.21;101118.06;5001651;28;20068;-46
2023/01/20 00:06:53;;;;;;;21.90;12.43;;;;;;;4.73;69.88;101110.41;5004942;28;20117;-44
2023/01/20 00:09:18;;;;;;;24.33;13.45;;;;;;;4.67;70.17;101111.03;5002264;28;20029;-45
2023/01/20 00:11:44;;;;;;;26.80;13.93;;;;;;;4.70;69.76;101115.41;5003418;28;20030;-45
2023/01/20 00:14:10;;;;;;;24.60;13.18;;;;;;;4.74;69.74;101113.06;5005575;28;20715;-44
2023/01/20 00:16:35;;;;;;;27.30;14.52;;;;;;;4.74;70.06;101117.34;5002481;28;20044;-42
2023/01/20 00:19:01;;;;;;;32.97;14.05;;;;;;;4.75;69.86;101116.50;5011115;28;20058;-44
2023/01/20 00:21:26;;;;;;;29.35;15.75;;;;;;;4.74;70.02;101120.78;5004461;28;20455;-44
2023/01/20 00:23:52;;;;;;;29.35;15.02;;;;;;;4.79;69.33;101119.28;5004949;28;20049;-44
2023/01/20 00:26:19;;;;;;;36.53;16.33;;;;;;;4.71;69.71;101118.06;5004621;28;20041;-45
2023/01/20 00:28:46;;;;;;;31.77;16.38;;;;;;;4.72;69.37;101121.53;4999279;28;20061;-45
2023/01/20 00:31:18;;;;;;;33.33;16.60;;;;;;;4.74;69.56;101125.06;5003621;28;20034;-47
2023/01/20 00:33:44;;;;;;;35.25;16.95;;;;;;;4.72;69.64;101121.53;4999614;28;20109;-47
2023/01/20 00:36:10;;;;;;;40.58;18.42;;;;;;;4.66;69.85;101131.63;5004629;28;20061;-42
2023/01/20 00:38:36;;;;;;;35.67;17.42;;;;;;;4.68;69.42;101119.66;5004736;28;20033;-43
2023/01/20 00:41:01;;;;;;;36.10;17.70;;;;;;;4.67;69.88;101120.47;5009220;28;20025;-44
2023/01/20 00:43:26;;;;;;;41.92;18.05;;;;;;;4.68;69.50;101130.88;5005899;28;20116;-46
2023/01/20 00:45:52;;;;;;;37.67;17.40;;;;;;;4.69;69.36;101129.19;5005559;28;20034;-43
2023/01/20 00:48:17;;;;;;;35.33;17.60;;;;;;;4.62;69.73;101117.72;5004804;28;20706;-44
2023/01/20 00:50:42;;;;;;;38.60;17.65;;;;;;;4.63;69.72;101124.66;4999987;28;20077;-45
2023/01/20 00:53:08;;;;;;;40.03;17.92;;;;;;;4.53;69.85;101132.81;5004589;28;20025;-46
2023/01/20 00:55:33;;;;;;;41.38;18.55;;;;;;;4.59;70.56;101130.47;5000887;28;20128;-46
2023/01/20 00:57:58;;;;;;;41.65;18.70;;;;;;;4.44;71.12;101142.78;5003961;28;20022;-45
2023/01/20 01:00:24;;;;;;;43.67;19.05;;;;;;;4.43;71.28;101131.56;4999245;28;20045;-46
2023/01/20 01:02:49;;;;;;;41.47;18.55;;;;;;;4.54;70.73;101133.69;5003792;28;20081;-48
2023/01/20 01:05:14;;;;;;;40.17;17.73;;;;;;;4.59;69.66;101130.47;5003779;28;20030;-44
2023/01/20 01:07:40;;;;;;;43.85;18.35;;;;;;;4.48;70.29;101139.50;5000404;28;20057;-47
2023/01/20 01:10:05;;;;;;;40.00;18.45;;;;;;;4.45;70.37;101144.53;5005483;28;20034;-44
2023/01/20 01:12:31;;;;;;;42.47;17.70;;;;;;;4.46;70.21;101141.13;5001028;28;20042;-45
2023/01/20 01:14:56;;;;;;;41.78;18.35;;;;;;;4.44;70.93;101143.66;5004210;28;20080;-43
2023/01/20 01:17:22;;;;;;;42.08;17.98;;;;;;;4.46;70.19;101144.59;5000175;28;20073;-44
2023/01/20 01:19:48;;;;;;;40.55;17.83;;;;;;;4.45;69.73;101141.97;5003257;28;20026;-43
2023/01/20 01:22:14;;;;;;;37.22;17.50;;;;;;;4.47;70.23;101151.50;5002715;28;20504;-45
2023/01/20 01:24:42;;;;;;;40.45;17.40;;;;;;;4.47;69.84;101148.94;5000140;28;20152;-44
2023/01/20 01:27:07;;;;;;;43.25;18.10;;;;;;;4.41;70.37;101156.41;5004019;28;20125;-45
2023/01/20 01:29:33;;;;;;;39.80;17.10;;;;;;;4.31;70.28;101161.13;5004454;28;20558;-46
2023/01/20 01:31:58;;;;;;;42.47;17.85;;;;;;;4.34;70.59;101166.41;5008256;28;20030;-44
2023/01/20 01:34:23;;;;;;;38.90;16.67;;;;;;;4.40;70.25;101162.38;5005982;28;20038;-45
2023/01/20 01:36:49;;;;;;;41.33;17.20;;;;;;;4.38;69.92;101165.75;5009956;28;20056;-44
2023/01/20 01:39:14;;;;;;;38.92;16.83;;;;;;;4.42;69.91;101173.69;5008683;28;20497;-46
2023/01/20 01:41:39;;;;;;;44.25;18.38;;;;;;;4.38;69.54;101173.50;5006951;28;20072;-44
2023/01/20 01:44:10;;;;;;;43.83;17.58;;;;;;;4.43;69.84;101179.72;5006855;28;20033;-43
2023/01/20 01:46:36;;;;;;;39.00;16.65;;;;;;;4.50;70.10;101176.59;4999694;28;20045;-49
2023/01/20 01:49:11;;;;;;;43.75;17.42;;;;;;;4.45;70.75;101181.53;5003719;28;20516;-43
2023/01/20 01:51:41;;;;;;;42.53;16.35;;;;;;;4.64;70.66;101180.63;4999280;28;20124;-47
2023/01/20 01:54:13;;;;;;;43.88;17.52;;;;;;;4.75;70.49;101181.97;5003791;28;20548;-44
2023/01/20 01:56:42;;;;;;;42.72;17.67;;;;;;;4.81;70.60;101177.06;4999609;28;20508;-44
2023/01/20 01:59:08;;;;;;;50.60;17.63;;;;;;;4.88;70.36;101178.16;5004399;28;20042;-44
2023/01/20 02:01:38;;;;;;;44.30;17.13;;;;;;;4.89;71.07;101178.22;5006894;28;20249;-45
2023/01/20 02:04:10;;;;;;;48.80;17.20;;;;;;;4.92;71.48;101177.47;5011301;28;20096;-45
2023/01/20 02:06:40;;;;;;;46.60;17.08;;;;;;;4.98;71.28;101184.59;5007452;28;20033;-43
2023/01/20 02:09:06;;;;;;;42.35;17.65;;;;;;;5.08;71.41;101178.97;5012001;28;20447;-45
2023/01/20 02:11:38;;;;;;;39.13;16.48;;;;;;;5.10;71.12;101180.81;4999404;28;20038;-43
2023/01/20 02:14:05;;;;;;;41.92;16.00;;;;;;;5.13;70.48;101180.03;5004479;28;20145;-44
2023/01/20 02:17:08;;;;;;;36.85;15.50;;;;;;;5.06;70.07;101176.31;4999547;28;20073;-46
2023/01/20 02:20:04;;;;;;;36.78;15.02;;;;;;;4.97;70.04;101181.13;4999481;28;20084;-43
2023/01/20 02:22:57;;;;;;;39.92;16.45;;;;;;;4.85;70.38;101185.78;4998921;28;20091;-44
2023/01/20 02:25:55;;;;;;;35.40;15.93;;;;;;;4.85;70.07;101183.22;5000528;28;20038;-44
2023/01/20 02:28:41;;;;;;;38.28;15.65;;;;;;;4.75;70.23;101184.56;4999584;28;20414;-45
2023/01/20 02:31:42;;;;;;;36.13;15.32;;;;;;;4.78;70.10;101176.91;5002936;28;20048;-44
2023/01/20 02:34:40;;;;;;;32.08;14.77;;;;;;;4.76;69.95;101175.06;5003383;28;20088;-44
2023/01/20 02:37:09;;;;;;;34.83;14.73;;;;;;;4.67;70.27;101173.00;5003353;28;20029;-44
2023/01/20 02:39:53;;;;;;;39.80;15.48;;;;;;;4.65;70.28;101177.22;5006750;28;20512;-43
2023/01/20 02:42:39;;;;;;;35.85;15.07;;;;;;;4.69;70.48;101173.97;5006716;28;20663;-44
2023/01/20 02:45:16;;;;;;;38.30;14.65;;;;;;;4.81;70.98;101171.88;5012887;28;20049;-43
2023/01/20 02:47:50;;;;;;;38.30;16.27;;;;;;;4.73;70.72;101167.22;5007790;28;20060;-46
2023/01/20 02:50:24;;;;;;;36.67;15.27;;;;;;;4.85;70.39;101170.31;5013790;28;20026;-43
2023/01/20 02:52:57;;;;;;;33.78;15.48;;;;;;;4.76;71.20;101164.75;5007286;28;20534;-44
2023/01/20 02:55:35;;;;;;;39.17;15.93;;;;;;;4.69;71.67;101173.97;5005570;28;20056;-44
2023/01/20 02:58:05;;;;;;;36.10;15.32;;;;;;;4.87;71.21;101174.72;5009483;28;20026;-45
2023/01/20 03:00:38;;;;;;;33.42;15.13;;;;;;;4.99;70.71;101173.44;5004861;28;20042;-44
2023/01/20 03:03:09;;;;;;;34.97;15.15;;;;;;;5.07;70.27;101169.44;5009174;28;20038;-44
2023/01/20 03:05:41;;;;;;;34.35;15.45;;;;;;;5.05;70.75;101174.59;5004420;28;20408;-43
2023/01/20 03:08:11;;;;;;;32.80;16.05;;;;;;;5.13;70.34;101170.56;5006289;28;20022;-45
2023/01/20 03:10:37;;;;;;;36.38;16.33;;;;;;;5.07;70.69;101174.63;5001467;28;20149;-43
2023/01/20 03:13:13;;;;;;;36.40;16.38;;;;;;;4.97;70.84;101175.97;5006826;28;20084;-43
2023/01/20 03:15:58;;;;;;;37.80;16.35;;;;;;;5.09;70.71;101168.72;5003138;28;20065;-42
2023/01/20 03:18:24;;;;;;;34.42;15.93;;;;;;;5.15;70.87;101175.81;5002381;28;20038;-45
2023/01/20 03:20:50;;;;;;;33.25;15.73;;;;;;;5.12;70.88;101168.81;5005534;28;20038;-44
2023/01/20 03:23:16;;;;;;;32.53;16.02;;;;;;;5.18;70.79;101170.78;5006633;28;20073;-45
2023/01/20 03:25:44;;;;;;;31.52;15.30;;;;;;;5.18;70.60;101170.78;5001884;28;20037;-46
2023/01/20 03:28:10;;;;;;;29.27;14.85;;;;;;;5.25;70.34;101163.31;5005517;28;20033;-43
2023/01/20 03:30:35;;;;;;;32.55;15.82;;;;;;;5.19;70.32;101168.25;5000769;28;20282;-44
2023/01/20 03:33:02;;;;;;;30.38;15.23;;;;;;;5.15;70.35;101153.44;5005235;28;20070;-44
2023/01/20 03:35:28;;;;;;;32.58;15.25;;;;;;;5.20;70.48;101163.97;5001893;28;20091;-44
2023/01/20 03:37:53;;;;;;;33.03;15.57;;;;;;;5.27;70.69;101159.09;5005648;28;20026;-43
2023/01/20 03:40:22;;;;;;;35.35;15.73;;;;;;;5.18;70.85;101160.44;5003205;28;20034;-45
2023/01/20 03:43:12;;;;;;;34.92;15.30;;;;;;;5.08;71.48;101171.22;5004268;28;20030;-44
2023/01/20 03:45:38;;;;;;;32.38;14.45;;;;;;;5.38;70.99;101172.44;5004546;28;20079;-42
2023/01/20 03:48:11;;;;;;;30.67;14.05;;;;;;;5.46;70.59;101164.97;5009977;28;20037;-45
2023/01/20 03:51:07;;;;;;;29.40;14.98;;;;;;;5.43;70.80;101173.47;5001906;28;20056;-45
2023/01/20 03:53:44;;;;;;;31.02;15.07;;;;;;;5.44;70.76;101170.06;5002182;28;20129;-44
2023/01/20 03:56:31;;;;;;;32.03;15.45;;;;;;;5.45;70.42;101170.97;5005148;28;20034;-45
2023/01/20 03:58:59;;;;;;;31.63;15.27;;;;;;;5.42;70.33;101171.75;5002340;28;20030;-44
2023/01/20 04:01:31;;;;;;;32.03;14.80;;;;;;;5.40;70.68;101173.38;4999938;28;20091;-43
2023/01/20 04:03:59;;;;;;;33.25;15.18;;;;;;;5.35;70.53;101166.28;5005876;28;20060;-44
2023/01/20 04:06:26;;;;;;;32.10;15.43;;;;;;;5.47;70.06;101170.22;5002654;28;20571;-44
2023/01/20 04:09:01;;;;;;;33.50;15.52;;;;;;;5.44;70.06;101169.19;5006924;28;20381;-44
2023/01/20 04:11:26;;;;;;;;;;;;;;;5.30;70.23;101163.50;5001667;28;20045;-41
2023/01/20 04:13:52;;;;;;;30.33;14.52;;;;;;;5.22;70.42;101175.25;5005179;28;19917;-43
2023/01/20 04:16:19;;;;;;;32.55;15.25;;;;;;;5.45;70.12;101170.97;5006738;28;20040;-42
2023/01/20 04:18:47;;;;;;;40.15;16.40;;;;;;;5.38;70.73;101166.38;5003848;28;20404;-45
2023/01/20 04:21:24;;;;;;;39.17;16.98;;;;;;;5.41;70.23;101169.97;5024504;22;21399;-41
2023/01/20 04:23:56;;;;;;;33.42;15.88;;;;;;;5.57;70.25;101176.59;5043738;28;20036;-43
2023/01/20 04:26:21;;;;;;;40.33;17.25;;;;;;;5.60;70.41;101176.75;5043946;28;20450;-43
2023/01/20 04:28:47;;;;;;;40.50;17.40;;;;;;;5.61;69.99;101175.91;5049415;28;20032;-40
2023/01/20 04:31:13;;;;;;;39.30;17.67;;;;;;;5.54;70.36;101166.16;5049124;28;20029;-41
2023/01/20 04:33:40;;;;;;;41.33;18.27;;;;;;;5.52;70.38;101168.69;5043054;28;20075;-42
2023/01/20 04:36:06;;;;;;;42.58;17.73;;;;;;;5.54;70.27;101166.16;5043235;28;20076;-42
2023/01/20 04:38:31;;;;;;;46.05;18.70;;;;;;;5.54;69.92;101167.03;5039654;28;20499;-40
2023/01/20 04:40:56;;;;;;;51.15;19.10;;;;;;;5.55;70.16;101167.94;5042731;28;20033;-41
2023/01/20 04:43:22;;;;;;;42.70;18.33;;;;;;;5.63;70.00;101163.91;5039381;28;20036;-44
2023/01/20 04:45:47;;;;;;;45.30;18.75;;;;;;;5.51;70.26;101169.50;5043916;28;20072;-44
2023/01/20 04:48:12;;;;;;;46.63;19.58;;;;;;;5.20;71.12;101184.63;5043749;28;20041;-44
2023/01/20 04:50:39;;;;;;;48.85;19.60;;;;;;;5.33;70.66;101194.63;5038790;28;20041;-41
2023/01/20 04:53:04;;;;;;;47.70;19.33;;;;;;;5.46;70.47;101190.84;5042464;28;20454;-41
2023/01/20 04:55:31;;;;;;;49.95;19.63;;;;;;;5.37;71.11;101191.34;5038428;28;20025;-39
2023/01/20 04:57:57;;;;;;;47.40;19.88;;;;;;;5.28;71.19;101194.47;5042882;28;20171;-41
2023/01/20 05:00:22;;;;;;;48.88;19.45;;;;;;;5.41;70.60;101194.94;5038276;28;20526;-42
2023/01/20 05:02:48;;;;;;;48.95;19.05;;;;;;;5.48;70.58;101200.44;5043028;28;20121;-41
2023/01/20 05:05:13;;;;;;;53.33;19.83;;;;;;;5.23;70.43;101208.03;5042991;28;20447;-40
2023/01/20 05:07:38;;;;;;;51.45;20.13;;;;;;;5.43;70.88;101208.84;5039885;28;20039;-39
2023/01/20 05:10:04;;;;;;;46.83;19.13;;;;;;;5.35;70.61;101207.63;5042962;28;20051;-40
2023/01/20 05:12:30;;;;;;;50.00;19.13;;;;;;;5.27;71.13;101207.31;5020692;28;20044;-43
2023/01/20 05:14:55;;;;;;;43.55;18.48;;;;;;;5.38;71.24;101207.75;5042432;28;20036;-40
2023/01/20 05:17:21;;;;;;;48.78;20.20;;;;;;;5.00;71.64;101216.56;5039289;28;20090;-40
2023/01/20 05:19:46;;;;;;;44.47;18.05;;;;;;;4.98;71.45;101220.78;5043100;28;20037;-40
2023/01/20 05:22:11;;;;;;;45.83;17.83;;;;;;;5.27;71.26;101215.97;5042720;28;20040;-40
2023/01/20 05:24:37;;;;;;;40.10;17.48;;;;;;;5.24;70.51;101222.72;5040010;28;20025;-40
2023/01/20 05:27:02;;;;;;;41.00;16.45;;;;;;;5.19;70.53;101219.94;5043824;28;20029;-41
2023/01/20 05:29:28;;;;;;;43.38;16.70;;;;;;;5.21;70.48;101217.41;5039823;28;20060;-40
2023/01/20 05:31:54;;;;;;;40.10;16.92;;;;;;;5.17;70.57;101213.84;5042007;28;20041;-42
2023/01/20 05:34:19;;;;;;;38.58;16.08;;;;;;;4.93;71.00;101211.97;5037695;28;20491;-41
2023/01/20 05:36:49;;;;;;;36.63;15.90;;;;;;;5.24;70.41;101213.28;5042925;28;20052;-40
2023/01/20 05:39:14;;;;;;;39.35;15.38;;;;;;;5.37;70.11;101208.59;5043691;28;20056;-39
2023/01/20 05:41:40;;;;;;;38.17;15.38;;;;;;;5.27;70.20;101213.38;5042830;28;20572;-41
2023/01/20 05:44:05;;;;;;;36.88;15.27;;;;;;;5.42;69.98;101215.69;5048677;28;20509;-40
2023/01/20 05:46:30;;;;;;;34.72;15.05;;;;;;;5.04;71.55;101216.75;5040149;28;20029;-41
2023/01/20 05:48:56;;;;;;;35.42;15.45;;;;;;;5.29;70.66;101216.03;5042515;28;20479;-42
2023/01/20 05:51:21;;;;;;;36.22;15.27;;;;;;;5.28;70.93;101214.25;5037102;28;20044;-39
2023/01/20 05:53:46;;;;;;;34.58;14.60;;;;;;;5.37;70.38;101214.63;5041641;28;20471;-41
2023/01/20 05:56:14;;;;;;;33.30;14.80;;;;;;;5.39;69.58;101215.56;5042050;28;20040;-39
2023/01/20 05:58:40;;;;;;;34.58;14.38;;;;;;;5.22;70.30;101217.50;5038267;28;20044;-42
2023/01/20 06:01:09;;;;;;;33.85;14.20;;;;;;;5.26;70.03;101213.31;5041589;28;20048;-40
2023/01/20 06:03:35;;;;;;;32.78;13.93;;;;;;;5.37;69.99;101208.59;5038546;28;20501;-39
2023/01/20 06:06:02;;;;;;;34.20;14.77;;;;;;;5.34;70.07;101221.38;5042185;28;20037;-40
2023/01/20 06:08:28;;;;;;;31.95;14.30;;;;;;;5.28;70.04;101217.72;5038456;28;20052;-39
2023/01/20 06:10:53;;;;;;;34.40;14.20;;;;;;;5.26;70.47;101218.47;5041231;28;20061;-40
2023/01/20 06:13:18;;;;;;;32.22;13.82;;;;;;;5.30;70.16;101212.63;5023609;28;20033;-40
2023/01/20 06:15:44;;;;;;;28.27;12.93;;;;;;;5.16;70.24;101213.78;5038146;28;20029;-39
2023/01/20 06:18:11;;;;;;;28.15;12.32;;;;;;;5.27;69.76;101205.63;5042166;28;20033;-40
2023/01/20 06:20:37;;;;;;;27.55;11.88;;;;;;;5.27;69.76;101195.28;5036835;28;20045;-39
2023/01/20 06:23:02;;;;;;;28.83;12.15;;;;;;;5.05;69.81;101207.28;5041429;28;20048;-40
2023/01/20 06:25:28;;;;;;;28.90;12.32;;;;;;;4.96;70.14;101204.31;5037659;28;20057;-41
2023/01/20 06:27:53;;;;;;;28.95;12.52;;;;;;;5.00;70.35;101213.97;5041432;28;20036;-40
2023/01/20 06:30:18;;;;;;;27.80;12.38;;;;;;;5.06;70.48;101212.50;5037630;28;20376;-38
2023/01/20 06:32:46;;;;;;;29.23;12.88;;;;;;;4.85;70.76;101215.09;5040686;28;20033;-41
2023/01/20 06:35:12;;;;;;;27.27;12.80;;;;;;;4.76;71.33;101226.72;5042202;28;20033;-40
2023/01/20 06:37:37;;;;;;;30.33;13.20;;;;;;;4.48;71.69;101222.09;5044972;28;22355;-39
2023/01/20 06:40:03;;;;;;;28.10;13.23;;;;;;;4.78;71.18;101222.53;5047720;28;20116;-40
2023/01/20 06:42:30;;;;;;;31.55;13.15;;;;;;;4.77;71.49;101215.59;5038636;28;20033;-41
2023/01/20 06:44:55;;;;;;;33.10;13.40;;;;;;;4.86;70.81;101211.72;5041484;28;20064;-43
2023/01/20 06:47:21;;;;;;;29.67;13.20;;;;;;;4.82;70.86;101208.91;5037824;28;20060;-40
2023/01/20 06:49:46;;;;;;;28.95;13.45;;;;;;;5.01;70.32;101221.78;5041485;28;20028;-40
2023/01/20 06:52:11;;;;;;;29.05;12.93;;;;;;;5.02;70.33;101220.94;5041096;28;20033;-41
2023/01/20 06:54:37;;;;;;;30.17;13.45;;;;;;;5.09;69.96;101222.97;5037415;28;20518;-39
2023/01/20 06:57:02;;;;;;;29.55;14.05;;;;;;;5.11;70.77;101238.56;5042152;28;20547;-40
2023/01/20 06:59:27;;;;;;;33.75;14.95;;;;;;;4.98;70.79;101236.28;5039051;28;20041;-41
2023/01/20 07:01:53;;;;;;;31.35;14.15;;;;;;;5.11;70.47;101239.44;5041476;28;20502;-41
2023/01/20 07:04:18;;;;;;;32.70;14.63;;;;;;;5.14;70.87;101236.97;5041591;28;20031;-40
2023/01/20 07:06:43;;;;;;;31.55;15.35;;;;;;;5.01;71.64;101247.59;5037525;28;20422;-39
2023/01/20 07:09:11;;;;;;;33.03;15.45;;;;;;;5.03;71.62;101248.56;5042638;28;20025;-41
2023/01/20 07:11:37;;;;;;;31.42;14.07;;;;;;;5.11;71.53;101247.19;5036462;28;20495;-40
2023/01/20 07:14:03;;;;;;;31.52;14.70;;;;;;;5.21;70.70;101241.56;5041249;28;20037;-38
2023/01/20 07:16:29;;;;;;;33.25;15.68;;;;;;;5.18;70.77;101248.31;5037604;28;20048;-40
2023/01/20 07:18:54;;;;;;;30.20;14.88;;;;;;;5.25;71.08;101242.56;5044209;28;20502;-40
2023/01/20 07:21:20;;;;;;;35.22;15.52;;;;;;;5.12;71.51;101245.50;5039916;28;20441;-37
2023/01/20 07:23:46;;;;;;;32.10;15.95;;;;;;;5.12;71.63;101250.66;5044599;28;20406;-40
2023/01/20 07:26:15;;;;;;;32.53;15.70;;;;;;;5.16;71.76;101256.00;5044617;28;20037;-41
2023/01/20 07:28:41;;;;;;;32.88;15.52;;;;;;;5.21;71.75;101261.34;5040744;28;20033;-40
2023/01/20 07:31:13;;;;;;;31.73;14.93;;;;;;;5.43;70.70;101263.97;5043669;28;20044;-40
2023/01/20 07:33:39;;;;;;;32.00;15.43;;;;;;;5.48;70.42;101262.50;5040221;28;20049;-40
2023/01/20 07:36:06;;;;;;;30.75;15.02;;;;;;;5.47;70.62;101262.41;5044715;28;20048;-42
2023/01/20 07:38:32;;;;;;;29.35;15.00;;;;;;;5.55;70.63;101267.06;5041607;28;20044;-42
2023/01/20 07:40:59;;;;;;;31.98;16.20;;;;;;;5.49;70.78;101265.97;5049334;28;20459;-44
2023/01/20 07:43:24;;;;;;;31.80;16.13;;;;;;;5.54;70.54;101264.44;5047276;28;20263;-39
2023/01/20 07:45:54;;;;;;;31.65;15.85;;;;;;;5.54;70.80;101261.84;5050660;28;20029;-41
2023/01/20 07:48:20;;;;;;;32.10;16.10;;;;;;;5.41;71.12;101272.50;5043254;28;20031;-41
2023/01/20 07:50:45;;;;;;;31.45;15.50;;;;;;;5.47;70.71;101275.34;5045692;28;20127;-42
2023/01/20 07:53:10;;;;;;;30.77;15.23;;;;;;;5.55;70.44;101281.72;5047726;28;20075;-40
2023/01/20 07:55:35;;;;;;;28.77;14.63;;;;;;;5.57;70.80;101287.81;5043987;28;20055;-40
2023/01/20 07:58:01;;;;;;;32.38;15.63;;;;;;;5.24;70.94;101311.50;5048531;28;20033;-40
2023/01/20 08:00:26;;;;;;;34.05;15.85;;;;;;;5.49;70.26;101315.94;5040372;28;20060;-41
2023/01/20 08:02:52;;;;;;;28.67;15.02;;;;;;;5.37;70.25;101312.84;5046596;28;20117;-39
2023/01/20 08:05:17;;;;;;;29.88;14.90;;;;;;;5.02;70.45;101321.72;5045914;28;20128;-40
2023/01/20 08:07:42;;;;;;;29.08;14.80;;;;;;;5.17;70.22;101321.50;5042061;28;20498;-41
2023/01/20 08:10:08;;;;;;;27.42;13.95;;;;;;;5.24;70.29;101323.53;5045758;28;20119;-40
2023/01/20 08:12:33;;;;;;;24.45;14.18;;;;;;;5.24;70.32;101315.78;5041412;28;20037;-39
2023/01/20 08:14:59;;;;;;;28.15;14.93;;;;;;;5.34;70.21;101325.66;5043630;28;20483;-43
2023/01/20 08:17:24;;;;;;;26.90;14.27;;;;;;;5.27;69.95;101334.88;5039683;28;20045;-40
2023/01/20 08:19:49;;;;;;;30.58;14.93;;;;;;;5.14;70.23;101340.34;5043823;28;20244;-40
2023/01/20 08:22:15;;;;;;;29.67;15.75;;;;;;;4.73;70.85;101346.31;5042691;28;20424;-43
2023/01/20 08:24:40;;;;;;;27.25;14.55;;;;;;;5.03;70.69;101344.16;5038916;28;20032;-40
2023/01/20 08:27:06;;;;;;;29.27;15.05;;;;;;;5.13;70.16;101355.78;5043565;28;20036;-39
2023/01/20 08:29:32;;;;;;;29.10;14.23;;;;;;;5.15;70.02;101346.41;5038488;28;20083;-41
2023/01/20 08:32:01;;;;;;;27.17;14.75;;;;;;;5.14;69.77;101350.69;5042541;28;20029;-39
2023/01/20 08:34:27;;;;;;;28.92;15.00;;;;;;;5.19;69.84;101346.59;5039703;28;20113;-39
2023/01/20 08:36:56;;;;;;;28.30;15.02;;;;;;;5.17;69.92;101344.78;5043437;28;20040;-39
2023/01/20 08:39:22;;;;;;;29.42;15.07;;;;;;;5.11;69.77;101340.22;5039351;28;20028;-40
2023/01/20 08:41:48;;;;;;;32.47;15.93;;;;;;;4.97;70.11;101346.50;5047928;28;20040;-41
2023/01/20 08:44:14;;;;;;;30.95;16.20;;;;;;;4.97;70.36;101336.16;5049323;28;20035;-41
2023/01/20 08:46:40;;;;;;;31.60;17.35;;;;;;;5.06;70.54;101333.94;5043265;28;20037;-42
2023/01/20 08:49:10;;;;;;;36.38;17.90;;;;;;;5.04;70.45;101321.81;5043408;28;20115;-41
2023/01/20 08:51:36;;;;;;;33.40;16.85;;;;;;;5.15;70.61;101316.25;5038490;28;20494;-41
2023/01/20 08:54:01;;;;;;;37.38;17.15;;;;;;;4.90;70.15;101321.19;5025285;28;20022;-40
2023/01/20 08:56:27;;;;;;;34.97;18.50;;;;;;;5.06;71.08;101323.63;5038710;28;20521;-40
2023/01/20 08:58:55;;;;;;;32.97;17.63;;;;;;;5.16;70.59;101324.91;5042842;28;20406;-40
2023/01/20 09:01:23;;;;;;;33.17;17.52;;;;;;;5.28;70.53;101335.75;5038553;28;20116;-38
2023/01/20 09:03:48;;;;;;;28.05;15.50;;;;;;;5.30;70.16;101336.72;5043209;28;20041;-40
2023/01/20 09:06:14;;;;;;;31.23;16.13;;;;;;;5.30;70.05;101335.00;5042755;28;20055;-40
2023/01/20 09:08:40;;;;;;;32.00;16.80;;;;;;;5.36;70.30;101339.56;5021285;28;20043;-41
2023/01/20 09:11:18;;;;;;;33.35;17.15;;;;;;;5.40;70.13;101348.31;5041873;28;20025;-46
2023/01/20 09:13:44;;;;;;;32.13;17.05;;;;;;;5.45;69.93;101350.25;5038475;28;20036;-41
2023/01/20 09:16:16;;;;;;;32.95;17.17;;;;;;;5.31;69.95;101348.78;5042892;28;20079;-40
2023/01/20 09:18:43;;;;;;;29.77;15.80;;;;;;;5.39;69.94;101357.75;5039262;28;20059;-45
2023/01/20 09:21:09;;;;;;;30.58;16.27;;;;;;;5.47;69.62;101353.81;5043535;28;20025;-41
2023/01/20 09:23:37;;;;;;;31.38;17.15;;;;;;;5.41;69.60;101361.31;5040523;28;20185;-40
2023/01/20 09:26:04;;;;;;;28.60;15.55;;;;;;;5.31;69.48;101359.13;5044096;28;20045;-42
2023/01/20 09:28:30;;;;;;;30.23;16.70;;;;;;;5.31;69.76;101354.84;5038812;28;20040;-40
2023/01/20 09:31:00;;;;;;;29.63;16.65;;;;;;;5.26;69.81;101365.81;5041644;28;20025;-41
2023/01/20 09:33:26;;;;;;;32.65;17.08;;;;;;;5.35;69.59;101361.06;5037919;28;20067;-43
2023/01/20 09:35:55;;;;;;;33.50;17.02;;;;;;;5.42;69.79;101368.25;5042493;28;20542;-38
2023/01/20 09:44:29;;;;;;;33.90;16.33;;;;;;;5.67;70.47;101383.09;5043128;28;20028;-40
2023/01/20 09:47:18;;;;;;;31.52;17.25;;;;;;;5.80;70.38;101376.69;5039999;28;20037;-42
2023/01/20 09:55:29;;;;;;;31.25;15.63;;;;;;;5.83;70.41;101379.41;5038303;28;19955;-39
2023/01/20 09:58:07;;;;;;;33.38;17.73;;;;;;;5.91;70.40;101376.34;5042713;28;20166;-41
2023/01/20 10:00:35;;;;;;;32.40;17.02;;;;;;;5.92;70.26;101379.78;5038165;28;20522;-42
2023/01/20 10:03:29;;;;;;;31.98;17.10;;;;;;;5.99;70.62;101379.22;5042884;28;20567;-42
2023/01/20 10:05:58;;;;;;;30.23;16.67;;;;;;;6.16;71.00;101377.31;5030072;28;20090;-40
2023/01/20 10:08:38;;;;;;;29.35;15.80;;;;;;;6.36;70.53;101381.53;5037916;28;20037;-41
2023/01/20 10:11:10;;;;;;;28.52;15.50;;;;;;;6.33;70.22;101386.63;5024402;28;20074;-42
2023/01/20 10:13:45;;;;;;;28.40;15.35;;;;;;;6.39;69.79;101392.03;5020061;28;20044;-40
2023/01/20 10:16:19;;;;;;;27.23;15.15;;;;;;;6.38;69.74;101385.09;5042834;28;20087;-40
2023/01/20 10:18:58;;;;;;;27.90;15.95;;;;;;;6.33;69.61;101387.50;5040430;28;20086;-43
2023/01/20 10:21:34;;;;;;;28.02;15.05;;;;;;;6.19;69.65;101382.59;5050472;22;20071;-76
2023/01/20 10:24:09;;;;;;;27.42;15.00;;;;;;;6.18;70.04;101380.81;5043809;28;20033;-76
2023/01/20 10:26:53;;;;;;;;;;;;;;;6.34;69.93;101381.47;5037961;28;20041;-77
2023/01/20 10:29:34;;;;;;;29.60;14.68;;;;;;;6.40;70.06;101373.94;5037857;28;19916;-78
2023/01/20 10:32:02;;;;;;;27.58;15.18;;;;;;;6.50;70.11;101376.06;5041234;28;20090;-76
2023/01/20 10:34:37;;;;;;;32.90;15.55;;;;;;;6.63;70.23;101376.53;5032491;22;20044;-42
2023/01/20 10:37:07;;;;;;;;;;;;;;;6.41;70.38;101380.88;5042247;28;20120;-42
2023/01/20 10:39:45;;;;;;;25.05;13.75;;;;;;;6.80;70.47;101370.25;5019679;28;19913;-42
2023/01/20 10:42:14;;;;;;;25.50;14.02;;;;;;;6.88;70.35;101380.09;5041220;28;20048;-46
2023/01/20 10:44:40;;;;;;;23.83;13.18;;;;;;;6.89;70.05;101363.66;5037473;28;20422;-43
2023/01/20 10:49:56;;;;;;;20.45;12.20;;;;;;;7.09;69.54;101366.09;5080215;22;20464;-44
2023/01/20 10:52:30;;;;;;;21.92;12.48;;;;;;;7.16;69.43;101361.19;5059206;28;20116;-44
2023/01/20 10:55:14;;;;;;;20.20;11.68;;;;;;;7.14;69.45;101367.13;5070121;28;20115;-43
2023/01/20 10:57:40;;;;;;;20.58;12.02;;;;;;;7.09;69.01;101360.91;5062436;28;20163;-43
2023/01/20 11:00:18;;;;;;;20.80;11.57;;;;;;;6.98;69.12;101367.44;5066200;28;20047;-44
2023/01/20 11:02:47;;;;;;;24.23;12.52;;;;;;;6.10;70.70;101383.09;5062224;28;20244;-47
2023/01/20 11:05:18;;;;;;;23.70;11.90;;;;;;;6.38;70.94;101388.56;5066538;28;20052;-45
2023/01/20 11:07:44;;;;;;;21.27;11.95;;;;;;;6.73;69.76;101384.69;5061933;28;20054;-43
2023/01/20 11:10:25;;;;;;;21.70;11.68;;;;;;;6.68;69.90;101383.63;5066299;28;20079;-43
2023/01/20 11:12:54;;;;;;;21.70;11.70;;;;;;;6.75;69.68;101379.56;5063261;28;20451;-45
2023/01/20 11:15:28;;;;;;;20.55;11.65;;;;;;;6.82;69.62;101374.69;5062235;28;20405;-44
2023/01/20 11:18:12;;;;;;;20.95;12.35;;;;;;;6.83;69.65;101370.38;5066549;28;20035;-42
2023/01/20 11:20:45;;;;;;;23.27;11.50;;;;;;;6.83;69.78;101376.41;5061747;28;20032;-43
2023/01/20 11:23:20;;;;;;;18.83;11.15;;;;;;;6.88;69.78;101372.31;5068125;28;20348;-43
2023/01/20 11:26:00;;;;;;;20.58;10.98;;;;;;;6.92;69.47;101363.81;5064211;28;20397;-46
2023/01/20 11:28:35;;;;;;;20.98;10.13;;;;;;;6.90;70.02;101370.63;5065763;28;20086;-41
2023/01/20 11:31:03;;;;;;;23.15;11.05;;;;;;;6.74;70.76;101365.72;5070253;28;20024;-44
2023/01/20 11:33:28;;;;;;;20.75;10.70;;;;;;;6.91;70.04;101362.03;5047303;28;20040;-41
2023/01/20 11:36:00;;;;;;;19.50;11.02;;;;;;;6.58;71.44;101386.72;5065444;28;20567;-47
2023/01/20 11:38:31;;;;;;;15.07;6.82;;;;;;;6.14;74.27;101394.47;5061386;28;20040;-44
2023/01/20 11:40:57;;;;;;;10.48;4.25;;;;;;;6.35;75.14;101393.59;5064681;28;20028;-47
2023/01/20 11:43:36;;;;;;;6.70;2.33;;;;;;;6.20;75.23;101408.56;5061468;28;20044;-44